createdAt,value
2023-03-01T00:00:14.399Z,9.00
2023-03-01T00:01:14.713Z,9.00
2023-03-01T00:02:15.086Z,9.30
2023-03-01T00:03:15.331Z,9.20
2023-03-01T00:04:15.524Z,9.10
2023-03-01T00:05:15.791Z,9.50
2023-03-01T00:06:16.336Z,9.40
2023-03-01T00:07:16.410Z,10.00
2023-03-01T00:08:16.643Z,9.10
2023-03-01T00:09:16.963Z,9.30
2023-03-01T00:10:17.224Z,9.80
2023-03-01T00:11:17.551Z,9.70
2023-03-01T00:12:17.903Z,10.20
2023-03-01T00:13:18.175Z,10.10
2023-03-01T00:14:18.381Z,10.10
2023-03-01T00:15:18.673Z,9.70
2023-03-01T00:16:19.092Z,9.80
2023-03-01T00:17:19.321Z,9.70
2023-03-01T00:18:19.575Z,10.00
2023-03-01T00:19:19.928Z,9.90
2023-03-01T00:20:20.201Z,9.90
2023-03-01T00:21:20.509Z,10.00
2023-03-01T00:22:20.862Z,10.40
2023-03-01T00:23:21.182Z,10.20
2023-03-01T00:24:21.894Z,10.30
2023-03-01T00:25:22.726Z,10.20
2023-03-01T00:26:22.030Z,10.50
2023-03-01T00:27:22.351Z,10.70
2023-03-01T00:28:22.658Z,10.60
2023-03-01T00:29:23.020Z,11.00
2023-03-01T00:30:23.254Z,10.70
2023-03-01T00:31:23.484Z,11.10
2023-03-01T00:32:23.830Z,10.50
2023-03-01T00:33:24.029Z,10.80
2023-03-01T00:34:24.398Z,11.00
2023-03-01T00:35:24.523Z,11.10
2023-03-01T00:36:24.859Z,11.30
2023-03-01T00:37:25.256Z,11.10
2023-03-01T00:38:25.534Z,12.20
2023-03-01T00:39:25.761Z,11.30
2023-03-01T00:40:25.948Z,11.40
2023-03-01T00:41:26.275Z,11.50
2023-03-01T00:42:26.604Z,11.30
2023-03-01T00:43:26.891Z,11.10
2023-03-01T00:44:27.330Z,11.60
2023-03-01T00:45:27.517Z,11.70
2023-03-01T00:46:27.964Z,11.40
2023-03-01T00:47:28.187Z,11.40
2023-03-01T00:48:28.569Z,11.40
2023-03-01T00:49:28.922Z,11.80
2023-03-01T00:50:29.202Z,11.80
2023-03-01T00:51:29.500Z,11.50
2023-03-01T00:52:29.880Z,11.60
2023-03-01T00:53:30.237Z,11.50
2023-03-01T00:54:30.455Z,12.60
2023-03-01T00:55:30.719Z,11.60
2023-03-01T00:56:31.497Z,11.40
2023-03-01T00:57:31.337Z,11.40
2023-03-01T00:58:31.544Z,11.20
2023-03-01T00:59:31.858Z,11.10
2023-03-01T01:00:32.292Z,11.10
2023-03-01T01:01:32.567Z,12.20
2023-03-01T01:02:32.845Z,11.80
2023-03-01T01:03:33.974Z,11.90
2023-03-01T01:04:33.276Z,11.70
2023-03-01T01:05:33.610Z,11.60
2023-03-01T01:06:34.093Z,11.80
2023-03-01T01:07:34.227Z,11.50
2023-03-01T01:08:34.522Z,12.00
2023-03-01T01:09:34.847Z,12.40
2023-03-01T01:10:35.180Z,12.10
2023-03-01T01:11:35.466Z,12.10
2023-03-01T01:12:35.822Z,12.30
2023-03-01T01:13:36.121Z,12.30
2023-03-01T01:14:36.604Z,12.20
2023-03-01T01:15:36.750Z,12.00
2023-03-01T01:16:37.054Z,11.80
2023-03-01T01:17:37.367Z,12.10
2023-03-01T01:18:37.718Z,12.10
2023-03-01T01:19:37.970Z,12.10
2023-03-01T01:20:38.151Z,12.30
2023-03-01T01:21:38.503Z,12.20
2023-03-01T01:22:38.704Z,12.10
2023-03-01T01:23:39.024Z,11.70
2023-03-01T01:24:39.367Z,12.40
2023-03-01T01:25:40.085Z,12.40
2023-03-01T01:26:39.850Z,12.20
2023-03-01T01:27:40.133Z,12.20
2023-03-01T01:28:40.527Z,12.30
2023-03-01T01:29:40.852Z,11.90
2023-03-01T01:30:41.259Z,12.70
2023-03-01T01:31:41.547Z,12.10
2023-03-01T01:32:41.785Z,12.30
2023-03-01T01:33:42.128Z,12.40
2023-03-01T01:34:42.489Z,12.10
2023-03-01T01:35:42.806Z,12.50
2023-03-01T01:36:43.013Z,12.80
2023-03-01T01:37:43.203Z,12.70
2023-03-01T01:38:43.600Z,12.70
2023-03-01T01:39:43.881Z,12.60
2023-03-01T01:40:44.267Z,12.50
2023-03-01T01:41:45.135Z,12.80
2023-03-01T01:42:44.886Z,12.00
2023-03-01T01:43:45.213Z,12.50
2023-03-01T01:44:45.616Z,12.90
2023-03-01T01:45:45.907Z,12.90
2023-03-01T01:46:46.240Z,12.40
2023-03-01T01:47:46.541Z,12.90
2023-03-01T01:48:46.747Z,13.00
2023-03-01T01:49:47.072Z,12.70
2023-03-01T01:50:47.403Z,12.90
2023-03-01T01:51:47.715Z,12.80
2023-03-01T01:52:48.064Z,12.60
2023-03-01T01:53:48.246Z,13.50
2023-03-01T01:54:48.542Z,13.00
2023-03-01T01:55:48.763Z,12.80
2023-03-01T01:56:49.063Z,13.00
2023-03-01T01:57:49.405Z,13.00
2023-03-01T01:58:50.107Z,13.20
2023-03-01T01:59:49.944Z,13.20
2023-03-01T02:00:50.188Z,12.60
2023-03-01T02:01:50.365Z,12.50
2023-03-01T02:02:50.784Z,13.30
2023-03-01T02:03:51.080Z,13.00
2023-03-01T02:04:51.265Z,12.80
2023-03-01T02:05:55.519Z,13.00
2023-03-01T02:06:51.859Z,13.00
2023-03-01T02:07:52.190Z,13.20
2023-03-01T02:08:52.420Z,12.60
2023-03-01T02:09:52.636Z,13.00
2023-03-01T02:10:52.952Z,13.50
2023-03-01T02:11:53.335Z,13.20
2023-03-01T02:12:53.578Z,13.40
2023-03-01T02:13:53.757Z,13.80
2023-03-01T02:14:54.094Z,13.40
2023-03-01T02:15:54.483Z,13.40
2023-03-01T02:16:54.718Z,13.80
2023-03-01T02:17:54.880Z,13.70
2023-03-01T02:18:55.262Z,13.60
2023-03-01T02:19:55.538Z,14.40
2023-03-01T02:20:55.918Z,13.80
2023-03-01T02:21:56.280Z,14.30
2023-03-01T02:22:56.467Z,13.50
2023-03-01T02:23:56.693Z,13.80
2023-03-01T02:24:57.016Z,14.00
2023-03-01T02:25:57.333Z,14.10
2023-03-01T02:26:58.039Z,14.10
2023-03-01T02:27:57.951Z,14.00
2023-03-01T02:28:58.152Z,14.00
2023-03-01T02:29:58.479Z,14.10
2023-03-01T02:30:58.919Z,14.40
2023-03-01T02:31:59.144Z,15.10
2023-03-01T02:32:59.347Z,14.20
2023-03-01T02:33:59.666Z,14.50
2023-03-01T02:35:00.041Z,14.30
2023-03-01T02:36:00.292Z,13.80
2023-03-01T02:37:00.575Z,13.50
2023-03-01T02:38:00.767Z,13.70
2023-03-01T02:39:01.076Z,13.50
2023-03-01T02:40:01.394Z,13.30
2023-03-01T02:41:01.723Z,13.10
2023-03-01T02:42:02.048Z,13.60
2023-03-01T02:43:02.381Z,13.80
2023-03-01T02:44:02.654Z,13.80
2023-03-01T02:45:03.078Z,13.50
2023-03-01T02:46:03.287Z,14.00
2023-03-01T02:47:04.028Z,14.20
2023-03-01T02:48:03.908Z,13.90
2023-03-01T02:49:04.264Z,14.00
2023-03-01T02:50:04.566Z,14.50
2023-03-01T02:51:04.873Z,14.40
2023-03-01T02:52:05.210Z,14.10
2023-03-01T02:53:05.539Z,14.00
2023-03-01T02:54:05.872Z,13.60
2023-03-01T02:55:06.302Z,14.20
2023-03-01T02:56:06.524Z,14.70
2023-03-01T02:57:06.809Z,13.90
2023-03-01T02:58:07.140Z,14.40
2023-03-01T02:59:07.471Z,14.70
2023-03-01T03:00:08.738Z,14.20
2023-03-01T03:01:08.152Z,13.80
2023-03-01T03:02:08.407Z,14.40
2023-03-01T03:03:08.621Z,14.40
2023-03-01T03:04:08.960Z,15.00
2023-03-01T03:05:09.345Z,14.20
2023-03-01T03:06:09.479Z,14.10
2023-03-01T03:07:09.844Z,13.80
2023-03-01T03:08:10.207Z,14.10
2023-03-01T03:09:10.598Z,14.90
2023-03-01T03:10:10.813Z,14.50
2023-03-01T03:11:11.148Z,14.40
2023-03-01T03:12:11.412Z,14.20
2023-03-01T03:13:11.853Z,14.90
2023-03-01T03:14:12.172Z,14.60
2023-03-01T03:15:12.379Z,14.20
2023-03-01T03:16:12.746Z,14.20
2023-03-01T03:17:12.960Z,14.60
2023-03-01T03:18:13.242Z,14.20
2023-03-01T03:19:13.638Z,14.10
2023-03-01T03:20:13.841Z,14.20
2023-03-01T03:21:14.178Z,14.40
2023-03-01T03:22:14.392Z,14.30
2023-03-01T03:23:14.741Z,14.30
2023-03-01T03:24:14.941Z,14.30
2023-03-01T03:25:15.240Z,13.90
2023-03-01T03:26:15.571Z,14.30
2023-03-01T03:27:15.919Z,14.20
2023-03-01T03:28:16.094Z,14.20
2023-03-01T03:29:16.491Z,14.50
2023-03-01T03:30:16.709Z,14.80
2023-03-01T03:31:17.131Z,13.90
2023-03-01T03:32:17.359Z,14.10
2023-03-01T03:33:17.620Z,14.10
2023-03-01T03:34:17.863Z,14.40
2023-03-01T03:35:18.171Z,14.30
2023-03-01T03:36:18.486Z,14.50
2023-03-01T03:37:18.828Z,14.10
2023-03-01T03:38:19.153Z,14.60
2023-03-01T03:39:20.686Z,14.60
2023-03-01T03:40:19.776Z,15.30
2023-03-01T03:41:20.163Z,15.40
2023-03-01T03:42:20.365Z,14.70
2023-03-01T03:43:20.757Z,14.80
2023-03-01T03:44:20.978Z,15.00
2023-03-01T03:45:21.369Z,15.50
2023-03-01T03:46:21.560Z,15.00
2023-03-01T03:47:21.957Z,14.90
2023-03-01T03:48:22.155Z,15.00
2023-03-01T03:49:22.493Z,15.00
2023-03-01T03:50:22.901Z,14.90
2023-03-01T03:51:23.138Z,15.30
2023-03-01T03:52:23.390Z,14.80
2023-03-01T03:53:23.616Z,14.90
2023-03-01T03:54:23.796Z,15.40
2023-03-01T03:55:24.197Z,15.10
2023-03-01T03:56:24.372Z,15.20
2023-03-01T03:57:24.668Z,15.50
2023-03-01T03:58:24.921Z,15.30
2023-03-01T03:59:25.145Z,14.90
2023-03-01T04:00:25.452Z,15.40
2023-03-01T04:01:25.831Z,15.50
2023-03-01T04:02:26.043Z,16.20
2023-03-01T04:03:26.254Z,15.80
2023-03-01T04:04:26.610Z,15.80
2023-03-01T04:05:26.824Z,15.20
2023-03-01T04:06:27.135Z,15.50
2023-03-01T04:07:27.459Z,15.40
2023-03-01T04:08:27.809Z,15.40
2023-03-01T04:09:28.087Z,15.60
2023-03-01T04:10:28.440Z,15.90
2023-03-01T04:11:28.768Z,15.80
2023-03-01T04:12:29.173Z,16.10
2023-03-01T04:13:29.379Z,15.70
2023-03-01T04:14:29.734Z,16.20
2023-03-01T04:15:30.067Z,16.40
2023-03-01T04:16:30.800Z,16.10
2023-03-01T04:17:30.609Z,15.60
2023-03-01T04:18:30.917Z,16.30
2023-03-01T04:19:31.239Z,16.40
2023-03-01T04:20:31.564Z,15.80
2023-03-01T04:21:31.905Z,16.70
2023-03-01T04:22:32.240Z,16.50
2023-03-01T04:23:32.437Z,16.70
2023-03-01T04:24:32.754Z,16.50
2023-03-01T04:25:33.078Z,16.20
2023-03-01T04:26:33.552Z,16.70
2023-03-01T04:27:33.735Z,16.70
2023-03-01T04:28:33.987Z,16.80
2023-03-01T04:29:34.323Z,16.90
2023-03-01T04:30:34.625Z,16.30
2023-03-01T04:31:35.057Z,15.90
2023-03-01T04:32:35.407Z,16.30
2023-03-01T04:33:35.574Z,16.20
2023-03-01T04:34:35.929Z,16.60
2023-03-01T04:35:36.296Z,16.50
2023-03-01T04:36:37.008Z,16.30
2023-03-01T04:37:36.765Z,16.30
2023-03-01T04:38:37.058Z,16.30
2023-03-01T04:39:37.409Z,16.30
2023-03-01T04:40:37.711Z,16.80
2023-03-01T04:41:38.043Z,16.50
2023-03-01T04:42:38.365Z,16.00
2023-03-01T04:43:38.716Z,16.90
2023-03-01T04:44:38.882Z,16.40
2023-03-01T04:45:39.283Z,16.20
2023-03-01T04:46:39.486Z,16.60
2023-03-01T04:47:39.882Z,16.60
2023-03-01T04:48:40.071Z,16.30
2023-03-01T04:49:40.438Z,16.60
2023-03-01T04:50:40.645Z,17.00
2023-03-01T04:51:41.024Z,16.00
2023-03-01T04:52:41.257Z,16.30
2023-03-01T04:53:41.502Z,16.60
2023-03-01T04:54:41.690Z,16.20
2023-03-01T04:55:42.028Z,17.70
2023-03-01T04:56:42.441Z,17.20
2023-03-01T04:57:43.615Z,16.70
2023-03-01T04:58:42.996Z,16.40
2023-03-01T04:59:43.331Z,16.10
2023-03-01T05:00:43.594Z,16.30
2023-03-01T05:01:43.838Z,16.30
2023-03-01T05:02:44.239Z,16.70
2023-03-01T05:03:44.444Z,18.50
2023-03-01T05:04:44.742Z,16.70
2023-03-01T05:05:44.954Z,16.70
2023-03-01T05:06:45.294Z,16.30
2023-03-01T05:07:45.608Z,16.50
2023-03-01T05:08:45.975Z,16.60
2023-03-01T05:09:46.328Z,16.70
2023-03-01T05:10:46.604Z,17.10
2023-03-01T05:11:46.963Z,16.80
2023-03-01T05:12:47.177Z,17.10
2023-03-01T05:13:47.571Z,16.50
2023-03-01T05:14:47.824Z,16.40
2023-03-01T05:15:48.192Z,16.60
2023-03-01T05:16:48.411Z,17.00
2023-03-01T05:17:48.740Z,17.10
2023-03-01T05:18:49.157Z,17.30
2023-03-01T05:19:49.373Z,16.80
2023-03-01T05:20:49.599Z,16.50
2023-03-01T05:21:49.969Z,16.90
2023-03-01T05:22:50.138Z,16.90
2023-03-01T05:23:50.534Z,17.20
2023-03-01T05:24:50.888Z,17.10
2023-03-01T05:25:51.148Z,17.20
2023-03-01T05:26:51.428Z,17.50
2023-03-01T05:27:51.717Z,17.60
2023-03-01T05:28:52.011Z,17.10
2023-03-01T05:29:52.431Z,17.50
2023-03-01T05:30:52.795Z,17.40
2023-03-01T05:31:52.915Z,17.60
2023-03-01T05:32:53.105Z,16.90
2023-03-01T05:33:53.518Z,17.30
2023-03-01T05:34:53.736Z,17.70
2023-03-01T05:35:54.095Z,17.40
2023-03-01T05:36:54.407Z,17.50
2023-03-01T05:37:54.675Z,17.70
2023-03-01T05:38:54.971Z,17.80
2023-03-01T05:39:55.204Z,19.00
2023-03-01T05:40:55.667Z,20.00
2023-03-01T05:41:55.853Z,20.30
2023-03-01T05:42:56.270Z,20.30
2023-03-01T05:43:56.623Z,19.80
2023-03-01T05:44:56.764Z,20.10
2023-03-01T05:45:57.074Z,18.60
2023-03-01T05:46:57.114Z,17.90
2023-03-01T05:47:57.501Z,18.20
2023-03-01T05:48:57.746Z,18.20
2023-03-01T05:49:57.964Z,17.70
2023-03-01T05:50:58.215Z,17.80
2023-03-01T05:51:58.529Z,18.00
2023-03-01T05:52:58.713Z,18.10
2023-03-01T05:53:58.974Z,18.00
2023-03-01T05:54:59.264Z,18.10
2023-03-01T05:55:59.557Z,18.00
2023-03-01T05:57:00.215Z,17.80
2023-03-01T05:58:00.107Z,17.90
2023-03-01T05:59:00.471Z,18.20
2023-03-01T06:00:00.766Z,17.90
2023-03-01T06:01:02.006Z,18.30
2023-03-01T06:02:01.273Z,18.60
2023-03-01T06:03:01.746Z,17.80
2023-03-01T06:04:01.854Z,17.90
2023-03-01T06:05:02.170Z,18.10
2023-03-01T06:06:02.434Z,18.10
2023-03-01T06:07:02.716Z,17.60
2023-03-01T06:08:02.931Z,17.40
2023-03-01T06:09:03.173Z,18.20
2023-03-01T06:10:03.441Z,17.50
2023-03-01T06:11:03.772Z,18.10
2023-03-01T06:12:04.006Z,19.10
2023-03-01T06:13:04.244Z,18.60
2023-03-01T06:14:04.574Z,18.10
2023-03-01T06:15:05.184Z,18.40
2023-03-01T06:16:05.561Z,18.50
2023-03-01T06:17:05.485Z,18.90
2023-03-01T06:18:05.839Z,18.00
2023-03-01T06:19:06.095Z,18.00
2023-03-01T06:20:06.843Z,18.70
2023-03-01T06:21:06.678Z,17.90
2023-03-01T06:22:06.947Z,17.50
2023-03-01T06:23:09.077Z,17.30
2023-03-01T06:24:07.705Z,18.30
2023-03-01T06:25:07.788Z,17.90
2023-03-01T06:26:08.226Z,17.90
2023-03-01T06:27:08.326Z,18.10
2023-03-01T06:28:08.603Z,17.60
2023-03-01T06:29:08.966Z,18.40
2023-03-01T06:30:09.228Z,17.80
2023-03-01T06:31:09.598Z,18.20
2023-03-01T06:32:09.892Z,17.90
2023-03-01T06:33:10.371Z,17.40
2023-03-01T06:34:10.355Z,18.10
2023-03-01T06:35:11.830Z,18.10
2023-03-01T06:36:10.914Z,17.70
2023-03-01T06:37:11.157Z,18.60
2023-03-01T06:38:11.470Z,18.90
2023-03-01T06:39:11.694Z,18.50
2023-03-01T06:40:11.950Z,18.70
2023-03-01T06:41:12.218Z,18.40
2023-03-01T06:42:12.471Z,18.50
2023-03-01T06:43:12.810Z,18.10
2023-03-01T06:44:13.054Z,18.00
2023-03-01T06:45:13.393Z,19.40
2023-03-01T06:46:13.669Z,18.50
2023-03-01T06:47:13.942Z,17.50
2023-03-01T06:48:14.313Z,17.90
2023-03-01T06:49:14.536Z,18.50
2023-03-01T06:50:14.956Z,17.50
2023-03-01T06:51:15.054Z,18.50
2023-03-01T06:52:15.333Z,18.20
2023-03-01T06:53:15.664Z,17.70
2023-03-01T06:54:15.890Z,18.40
2023-03-01T06:55:16.166Z,17.80
2023-03-01T06:56:16.500Z,18.40
2023-03-01T06:57:16.766Z,18.20
2023-03-01T06:58:17.097Z,18.20
2023-03-01T06:59:17.342Z,17.70
2023-03-01T07:00:17.620Z,18.90
2023-03-01T07:01:18.001Z,17.70
2023-03-01T07:02:18.301Z,18.80
2023-03-01T07:03:18.560Z,18.30
2023-03-01T07:04:18.820Z,18.30
2023-03-01T07:05:19.095Z,19.40
2023-03-01T07:06:19.409Z,18.20
2023-03-01T07:07:19.664Z,17.80
2023-03-01T07:08:20.302Z,17.50
2023-03-01T07:09:20.313Z,18.20
2023-03-01T07:10:20.593Z,18.60
2023-03-01T07:11:20.886Z,17.80
2023-03-01T07:12:21.154Z,17.70
2023-03-01T07:13:21.457Z,17.60
2023-03-01T07:14:21.721Z,18.20
2023-03-01T07:15:22.051Z,18.20
2023-03-01T07:16:22.405Z,17.70
2023-03-01T07:17:22.528Z,18.00
2023-03-01T07:18:22.841Z,17.60
2023-03-01T07:19:23.110Z,17.50
2023-03-01T07:20:23.420Z,17.40
2023-03-01T07:21:23.671Z,16.50
2023-03-01T07:22:24.026Z,17.40
2023-03-01T07:23:24.264Z,17.00
2023-03-01T07:24:24.536Z,17.20
2023-03-01T07:25:24.977Z,17.20
2023-03-01T07:26:26.263Z,17.10
2023-03-01T07:27:25.382Z,16.80
2023-03-01T07:28:25.736Z,17.10
2023-03-01T07:29:25.973Z,17.50
2023-03-01T07:30:26.592Z,17.50
2023-03-01T07:31:26.535Z,17.80
2023-03-01T07:32:27.062Z,16.90
2023-03-01T07:33:27.268Z,17.20
2023-03-01T07:34:27.486Z,16.80
2023-03-01T07:35:27.834Z,16.60
2023-03-01T07:36:28.810Z,16.70
2023-03-01T07:37:28.622Z,17.80
2023-03-01T07:38:28.652Z,16.50
2023-03-01T07:39:29.266Z,15.40
2023-03-01T07:40:29.585Z,15.80
2023-03-01T07:41:29.692Z,16.10
2023-03-01T07:42:30.003Z,15.50
2023-03-01T07:43:30.893Z,15.90
2023-03-01T07:44:30.617Z,15.50
2023-03-01T07:45:31.039Z,15.70
2023-03-01T07:46:31.296Z,15.80
2023-03-01T07:47:31.351Z,15.50
2023-03-01T07:48:31.567Z,16.30
2023-03-01T07:49:31.935Z,16.30
2023-03-01T07:50:32.199Z,15.80
2023-03-01T07:51:32.516Z,16.10
2023-03-01T07:52:32.806Z,15.40
2023-03-01T07:53:33.076Z,15.40
2023-03-01T07:54:33.388Z,15.50
2023-03-01T07:55:33.679Z,15.10
2023-03-01T07:56:34.210Z,15.80
2023-03-01T07:57:34.268Z,15.80
2023-03-01T07:58:34.543Z,15.60
2023-03-01T07:59:34.839Z,16.10
2023-03-01T08:00:35.146Z,15.90
2023-03-01T08:01:35.395Z,15.80
2023-03-01T08:02:35.672Z,15.30
2023-03-01T08:03:35.988Z,15.60
2023-03-01T08:04:36.432Z,15.40
2023-03-01T08:05:41.801Z,16.40
2023-03-01T08:06:36.916Z,16.50
2023-03-01T08:07:37.199Z,15.20
2023-03-01T08:08:37.449Z,15.70
2023-03-01T08:09:37.723Z,15.50
2023-03-01T08:10:38.068Z,15.40
2023-03-01T08:11:38.345Z,18.10
2023-03-01T08:12:38.546Z,15.60
2023-03-01T08:13:38.789Z,15.20
2023-03-01T08:14:39.208Z,15.80
2023-03-01T08:15:39.370Z,15.60
2023-03-01T08:16:39.732Z,15.40
2023-03-01T08:17:39.836Z,15.60
2023-03-01T08:18:40.167Z,16.80
2023-03-01T08:19:40.394Z,15.80
2023-03-01T08:20:40.757Z,16.60
2023-03-01T08:21:41.012Z,16.50
2023-03-01T08:22:41.362Z,16.40
2023-03-01T08:23:41.452Z,15.70
2023-03-01T08:24:41.864Z,16.30
2023-03-01T08:25:42.156Z,16.30
2023-03-01T08:26:42.504Z,15.40
2023-03-01T08:27:42.772Z,16.00
2023-03-01T08:28:43.024Z,16.70
2023-03-01T08:29:43.371Z,16.40
2023-03-01T08:30:43.734Z,15.10
2023-03-01T08:31:43.909Z,16.10
2023-03-01T08:32:44.224Z,15.80
2023-03-01T08:33:44.335Z,15.70
2023-03-01T08:34:44.791Z,15.70
2023-03-01T08:35:45.186Z,15.80
2023-03-01T08:36:45.401Z,15.50
2023-03-01T08:37:45.677Z,16.50
2023-03-01T08:38:45.979Z,15.50
2023-03-01T08:39:46.184Z,16.00
2023-03-01T08:40:46.364Z,15.60
2023-03-01T08:41:48.126Z,15.10
2023-03-01T08:42:46.880Z,15.50
2023-03-01T08:43:47.254Z,15.60
2023-03-01T08:44:47.594Z,16.10
2023-03-01T08:45:47.933Z,15.50
2023-03-01T08:46:48.216Z,16.40
2023-03-01T08:47:48.546Z,16.40
2023-03-01T08:48:48.832Z,15.40
2023-03-01T08:49:49.039Z,15.20
2023-03-01T08:50:49.365Z,16.70
2023-03-01T08:51:49.621Z,15.50
2023-03-01T08:52:49.896Z,15.40
2023-03-01T08:53:50.159Z,15.60
2023-03-01T08:54:50.535Z,15.70
2023-03-01T08:55:50.899Z,15.80
2023-03-01T08:56:51.106Z,15.00
2023-03-01T08:57:51.391Z,15.70
2023-03-01T08:58:51.652Z,16.00
2023-03-01T08:59:52.080Z,15.00
2023-03-01T09:00:52.177Z,16.70
2023-03-01T09:01:52.540Z,15.70
2023-03-01T09:02:52.730Z,15.20
2023-03-01T09:03:53.058Z,15.30
2023-03-01T09:04:53.341Z,15.30
2023-03-01T09:05:53.586Z,15.20
2023-03-01T09:06:53.856Z,14.80
2023-03-01T09:07:54.211Z,14.80
2023-03-01T09:08:54.521Z,15.40
2023-03-01T09:09:54.774Z,16.60
2023-03-01T09:10:55.069Z,16.50
2023-03-01T09:11:55.432Z,16.30
2023-03-01T09:12:55.576Z,16.10
2023-03-01T09:13:55.819Z,15.90
2023-03-01T09:14:56.128Z,16.00
2023-03-01T09:15:56.366Z,15.40
2023-03-01T09:16:56.700Z,15.40
2023-03-01T09:17:56.994Z,15.60
2023-03-01T09:18:57.254Z,15.20
2023-03-01T09:19:57.560Z,15.30
2023-03-01T09:20:57.863Z,16.30
2023-03-01T09:21:58.168Z,15.60
2023-03-01T09:22:58.432Z,15.80
2023-03-01T09:23:58.701Z,16.20
2023-03-01T09:24:58.933Z,16.40
2023-03-01T09:25:59.321Z,16.80
2023-03-01T09:26:59.642Z,16.50
2023-03-01T09:27:59.843Z,16.10
2023-03-01T09:29:00.130Z,16.30
2023-03-01T09:30:00.453Z,16.40
2023-03-01T09:31:00.904Z,16.40
2023-03-01T09:32:01.049Z,15.80
2023-03-01T09:33:01.331Z,15.60
2023-03-01T09:34:01.565Z,15.70
2023-03-01T09:35:01.832Z,16.80
2023-03-01T09:36:02.141Z,16.20
2023-03-01T09:37:02.404Z,15.70
2023-03-01T09:38:02.778Z,16.50
2023-03-01T09:39:03.000Z,17.50
2023-03-01T09:40:03.275Z,17.10
2023-03-01T09:41:03.661Z,16.40
2023-03-01T09:42:03.894Z,16.80
2023-03-01T09:43:04.178Z,16.40
2023-03-01T09:44:04.427Z,17.00
2023-03-01T09:45:04.770Z,16.60
2023-03-01T09:46:05.046Z,16.50
2023-03-01T09:47:05.352Z,17.00
2023-03-01T09:48:05.665Z,16.90
2023-03-01T09:49:05.976Z,17.20
2023-03-01T09:50:06.237Z,16.80
2023-03-01T09:51:06.584Z,16.80
2023-03-01T09:52:06.858Z,18.20
2023-03-01T09:53:07.151Z,16.90
2023-03-01T09:54:07.452Z,16.20
2023-03-01T09:55:07.731Z,16.20
2023-03-01T09:56:08.015Z,16.10
2023-03-01T09:57:08.286Z,16.50
2023-03-01T09:58:08.558Z,16.70
2023-03-01T09:59:08.839Z,16.80
2023-03-01T10:00:09.129Z,16.90
2023-03-01T10:01:09.415Z,17.40
2023-03-01T10:02:09.723Z,17.20
2023-03-01T10:03:10.052Z,17.40
2023-03-01T10:04:10.329Z,16.80
2023-03-01T10:05:10.646Z,16.70
2023-03-01T10:06:12.316Z,17.70
2023-03-01T10:07:11.093Z,16.40
2023-03-01T10:08:11.410Z,16.40
2023-03-01T10:09:11.711Z,16.90
2023-03-01T10:10:11.932Z,16.40
2023-03-01T10:11:12.271Z,16.50
2023-03-01T10:12:12.626Z,16.80
2023-03-01T10:13:13.026Z,16.80
2023-03-01T10:14:13.205Z,17.20
2023-03-01T10:15:13.552Z,16.90
2023-03-01T10:16:13.708Z,17.10
2023-03-01T10:17:13.986Z,17.20
2023-03-01T10:18:14.673Z,16.80
2023-03-01T10:19:14.579Z,19.30
2023-03-01T10:20:14.823Z,17.20
2023-03-01T10:21:15.077Z,17.00
2023-03-01T10:22:15.418Z,17.40
2023-03-01T10:23:15.722Z,17.20
2023-03-01T10:24:15.984Z,17.70
2023-03-01T10:25:16.343Z,18.00
2023-03-01T10:26:16.584Z,17.40
2023-03-01T10:27:16.946Z,16.70
2023-03-01T10:28:17.108Z,17.30
2023-03-01T10:29:17.505Z,17.00
2023-03-01T10:30:17.656Z,16.50
2023-03-01T10:31:17.992Z,17.40
2023-03-01T10:32:18.451Z,16.40
2023-03-01T10:33:18.468Z,16.60
2023-03-01T10:34:18.901Z,16.60
2023-03-01T10:35:19.025Z,16.10
2023-03-01T10:36:19.347Z,17.50
2023-03-01T10:37:19.718Z,16.80
2023-03-01T10:38:19.959Z,17.00
2023-03-01T10:39:20.382Z,16.40
2023-03-01T10:40:20.565Z,16.70
2023-03-01T10:41:20.866Z,17.30
2023-03-01T10:42:21.074Z,17.00
2023-03-01T10:43:21.440Z,17.20
2023-03-01T10:44:21.713Z,16.80
2023-03-01T10:45:22.083Z,16.20
2023-03-01T10:46:22.450Z,16.90
2023-03-01T10:47:22.601Z,17.30
2023-03-01T10:48:22.908Z,16.90
2023-03-01T10:49:23.172Z,16.80
2023-03-01T10:50:23.450Z,15.90
2023-03-01T10:51:23.793Z,16.60
2023-03-01T10:52:24.075Z,16.90
2023-03-01T10:53:24.372Z,16.20
2023-03-01T10:54:24.648Z,17.10
2023-03-01T10:55:24.974Z,17.30
2023-03-01T10:56:25.193Z,17.00
2023-03-01T10:57:25.950Z,18.00
2023-03-01T10:58:25.847Z,17.10
2023-03-01T10:59:26.121Z,17.30
2023-03-01T11:00:26.406Z,16.70
2023-03-01T11:01:26.900Z,16.80
2023-03-01T11:02:27.412Z,16.20
2023-03-01T11:03:27.385Z,16.20
2023-03-01T11:04:27.641Z,16.70
2023-03-01T11:05:27.912Z,16.50
2023-03-01T11:06:28.188Z,16.10
2023-03-01T11:07:28.577Z,17.60
2023-03-01T11:08:28.706Z,17.80
2023-03-01T11:09:28.966Z,16.40
2023-03-01T11:10:29.241Z,15.70
2023-03-01T11:11:30.273Z,16.50
2023-03-01T11:12:29.841Z,17.20
2023-03-01T11:13:30.132Z,16.40
2023-03-01T11:14:30.470Z,16.60
2023-03-01T11:15:30.812Z,16.10
2023-03-01T11:16:30.945Z,16.80
2023-03-01T11:17:34.723Z,16.60
2023-03-01T11:18:47.170Z,17.10
2023-03-01T11:19:32.852Z,16.00
2023-03-01T11:20:32.148Z,17.50
2023-03-01T11:21:32.807Z,16.10
2023-03-01T11:22:32.870Z,15.30
2023-03-01T11:23:33.001Z,16.20
2023-03-01T11:24:33.548Z,15.80
2023-03-01T11:25:33.666Z,16.60
2023-03-01T11:26:34.025Z,16.30
2023-03-01T11:27:34.263Z,16.40
2023-03-01T11:28:34.510Z,16.20
2023-03-01T11:29:43.267Z,16.10
2023-03-01T11:30:36.171Z,16.10
2023-03-01T11:31:35.456Z,16.40
2023-03-01T11:32:35.688Z,16.60
2023-03-01T11:33:35.889Z,16.60
2023-03-01T11:34:36.136Z,16.30
2023-03-01T11:35:36.562Z,15.90
2023-03-01T11:36:36.657Z,15.80
2023-03-01T11:37:36.981Z,16.20
2023-03-01T11:38:37.283Z,16.20
2023-03-01T11:39:37.545Z,16.40
2023-03-01T11:40:37.819Z,16.00
2023-03-01T11:41:38.146Z,15.80
2023-03-01T11:42:38.500Z,16.70
2023-03-01T11:43:38.886Z,15.50
2023-03-01T11:44:39.010Z,16.10
2023-03-01T11:45:39.268Z,15.60
2023-03-01T11:46:39.686Z,15.60
2023-03-01T11:47:40.000Z,16.20
2023-03-01T11:48:49.369Z,16.00
2023-03-01T11:49:41.409Z,15.70
2023-03-01T11:50:40.702Z,15.40
2023-03-01T11:51:40.978Z,15.60
2023-03-01T11:52:41.280Z,15.10
2023-03-01T11:53:41.690Z,14.90
2023-03-01T11:54:41.882Z,16.20
2023-03-01T11:55:42.139Z,16.40
2023-03-01T11:56:42.573Z,15.90
2023-03-01T11:57:44.121Z,15.30
2023-03-01T11:58:43.029Z,14.80
2023-03-01T11:59:43.339Z,15.60
2023-03-01T12:00:43.618Z,15.80
2023-03-01T12:01:44.015Z,15.60
2023-03-01T12:02:44.238Z,15.70
2023-03-01T12:03:44.432Z,16.00
2023-03-01T12:04:44.725Z,15.10
2023-03-01T12:05:44.949Z,15.90
2023-03-01T12:06:45.209Z,15.50
2023-03-01T12:07:45.481Z,19.70
2023-03-01T12:08:45.840Z,16.70
2023-03-01T12:09:46.174Z,15.70
2023-03-01T12:10:46.430Z,14.80
2023-03-01T12:11:46.741Z,14.90
2023-03-01T12:12:47.112Z,15.70
2023-03-01T12:13:47.505Z,15.20
2023-03-01T12:14:47.662Z,15.00
2023-03-01T12:15:47.910Z,15.40
2023-03-01T12:16:48.172Z,14.80
2023-03-01T12:17:48.458Z,15.10
2023-03-01T12:18:48.719Z,14.60
2023-03-01T12:19:49.065Z,14.50
2023-03-01T12:20:51.284Z,14.70
2023-03-01T12:21:49.669Z,14.00
2023-03-01T12:22:49.930Z,14.50
2023-03-01T12:23:50.229Z,14.50
2023-03-01T12:24:50.575Z,14.30
2023-03-01T12:25:50.920Z,14.30
2023-03-01T12:26:51.981Z,15.10
2023-03-01T12:27:51.413Z,14.90
2023-03-01T12:28:51.690Z,14.70
2023-03-01T12:29:51.998Z,14.70
2023-03-01T12:30:52.267Z,15.20
2023-03-01T12:31:52.768Z,14.50
2023-03-01T12:32:52.913Z,14.60
2023-03-01T12:33:53.154Z,14.60
2023-03-01T12:34:53.420Z,15.40
2023-03-01T12:35:53.762Z,15.10
2023-03-01T12:36:54.043Z,14.70
2023-03-01T12:37:54.333Z,14.40
2023-03-01T12:38:54.599Z,14.30
2023-03-01T12:39:54.876Z,13.80
2023-03-01T12:40:55.195Z,14.30
2023-03-01T12:41:55.512Z,14.60
2023-03-01T12:42:55.760Z,15.10
2023-03-01T12:43:56.102Z,14.50
2023-03-01T12:44:56.365Z,15.10
2023-03-01T12:45:56.664Z,15.50
2023-03-01T12:46:56.912Z,14.40
2023-03-01T12:47:57.285Z,14.20
2023-03-01T12:48:57.480Z,13.70
2023-03-01T12:49:57.819Z,14.30
2023-03-01T12:50:58.085Z,14.30
2023-03-01T12:51:58.711Z,13.70
2023-03-01T12:52:58.656Z,14.10
2023-03-01T12:53:58.900Z,14.30
2023-03-01T12:54:59.154Z,13.20
2023-03-01T12:55:59.440Z,13.30
2023-03-01T12:56:59.742Z,13.40